Time;durP1;ratioP1;P1;durP2;ratioP2;P2;SDS_P1;SDS_P2;PMS_P1;PMS_P2;Temp;Humidity;BMP_temperature;BMP_pressure;BME280_temperature;BME280_humidity;BME280_pressure;Samples;Min_cycle;Max_cycle;Signal;HPM_P1;HPM_P2
2022/04/03 00:00:37;;;;;;;4.83;2.57;;;;;;;;;;5073263;28;20021;-65
2022/04/03 00:03:04;;;;;;;9.43;3.40;;;;;;;;;;5072301;28;20374;-64
2022/04/03 00:05:33;;;;;;;6.70;2.80;;;;;;;;;;5078874;28;20047;-64
2022/04/03 00:07:57;;;;;;;4.17;2.50;;;;;;;;;;5074711;22;20053;-68
2022/04/03 00:10:23;;;;;;;3.80;2.50;;;;;;;;;;5052641;28;20540;-70
2022/04/03 00:12:50;;;;;;;4.30;2.90;;;;;;;;;;5054131;28;20029;-70
2022/04/03 00:15:16;;;;;;;5.13;2.77;;;;;;;;;;5054228;28;20497;-70
2022/04/03 00:17:43;;;;;;;6.67;2.70;;;;;;;;;;5053406;28;20484;-69
2022/04/03 00:20:09;;;;;;;6.43;2.93;;;;;;;;;;5052634;28;20033;-69
2022/04/03 00:22:35;;;;;;;8.07;3.20;;;;;;;;;;5053214;28;20035;-70
2022/04/03 00:25:01;;;;;;;4.30;3.10;;;;;;;;;;5051066;28;20036;-70
2022/04/03 00:27:27;;;;;;;4.00;2.93;;;;;;;;;;5051026;28;20066;-70
2022/04/03 00:29:53;;;;;;;5.03;2.90;;;;;;;;;;5052590;28;20451;-70
2022/04/03 00:32:19;;;;;;;5.17;3.00;;;;;;;;;;5051005;28;20202;-69
2022/04/03 00:34:46;;;;;;;5.73;2.97;;;;;;;;;;5052190;28;20450;-68
2022/04/03 00:37:11;;;;;;;5.40;2.83;;;;;;;;;;5051370;28;20045;-69
2022/04/03 00:39:38;;;;;;;4.97;2.93;;;;;;;;;;5052377;28;20032;-69
2022/04/03 00:42:06;;;;;;;4.33;2.80;;;;;;;;;;5052195;28;20037;-69
2022/04/03 00:44:33;;;;;;;4.63;3.17;;;;;;;;;;5053557;28;20591;-70
2022/04/03 00:47:00;;;;;;;5.80;3.00;;;;;;;;;;5052049;28;20408;-70
2022/04/03 00:49:26;;;;;;;8.17;3.33;;;;;;;;;;5052351;28;20033;-70
2022/04/03 00:51:52;;;;;;;5.20;3.00;;;;;;;;;;5053859;28;20531;-70
2022/04/03 00:54:18;;;;;;;6.83;3.13;;;;;;;;;;5042802;28;20037;-69
2022/04/03 00:56:44;;;;;;;5.60;2.93;;;;;;;;;;5051283;28;20017;-69
2022/04/03 00:59:12;;;;;;;5.53;2.77;;;;;;;;;;5053000;28;20482;-70
2022/04/03 01:01:40;;;;;;;6.23;3.43;;;;;;;;;;5052218;28;20052;-68
2022/04/03 01:04:06;;;;;;;7.87;3.47;;;;;;;;;;5052633;28;20039;-69
2022/04/03 01:06:33;;;;;;;5.37;3.00;;;;;;;;;;5052379;28;20041;-69
2022/04/03 01:08:59;;;;;;;8.27;3.60;;;;;;;;;;5067159;28;20029;-69
2022/04/03 01:11:25;;;;;;;6.53;3.37;;;;;;;;;;5041640;28;20041;-69
2022/04/03 01:13:52;;;;;;;5.17;3.17;;;;;;;;;;5060921;28;20029;-70
2022/04/03 01:16:18;;;;;;;6.03;3.10;;;;;;;;;;5051878;28;20032;-69
2022/04/03 01:18:44;;;;;;;7.47;3.60;;;;;;;;;;5052039;28;20021;-70
2022/04/03 01:21:11;;;;;;;5.70;3.37;;;;;;;;;;5051575;28;20033;-70
2022/04/03 01:23:37;;;;;;;6.10;3.80;;;;;;;;;;5049117;28;20055;-69
2022/04/03 01:26:03;;;;;;;8.23;3.50;;;;;;;;;;5051927;28;20038;-69
2022/04/03 01:28:29;;;;;;;6.90;3.80;;;;;;;;;;5052384;28;20021;-70
2022/04/03 01:30:55;;;;;;;7.73;4.23;;;;;;;;;;5035604;28;20045;-69
2022/04/03 01:33:21;;;;;;;5.87;3.70;;;;;;;;;;5049286;28;20024;-70
2022/04/03 01:35:47;;;;;;;5.83;3.20;;;;;;;;;;5051719;28;20025;-70
2022/04/03 01:38:14;;;;;;;6.87;3.50;;;;;;;;;;5051784;28;20436;-70
2022/04/03 01:40:39;;;;;;;7.03;3.57;;;;;;;;;;5051044;28;20029;-71
2022/04/03 01:43:06;;;;;;;5.97;3.27;;;;;;;;;;5051923;28;20041;-70
2022/04/03 01:45:33;;;;;;;9.23;3.47;;;;;;;;;;5048592;28;20067;-70
2022/04/03 01:47:59;;;;;;;6.67;3.50;;;;;;;;;;5051255;28;20033;-70
2022/04/03 01:50:26;;;;;;;7.43;3.50;;;;;;;;;;5049869;28;20043;-70
2022/04/03 01:52:52;;;;;;;7.87;3.40;;;;;;;;;;5049955;28;20029;-71
2022/04/03 01:55:18;;;;;;;7.43;3.77;;;;;;;;;;5050267;28;20043;-71
2022/04/03 01:57:44;;;;;;;6.17;3.00;;;;;;;;;;5048837;28;20082;-71
2022/04/03 02:00:10;;;;;;;7.43;3.47;;;;;;;;;;5050448;28;20033;-70
2022/04/03 02:02:37;;;;;;;5.83;3.30;;;;;;;;;;5050258;28;20029;-70
2022/04/03 02:05:03;;;;;;;5.60;3.40;;;;;;;;;;5048818;28;20091;-70
2022/04/03 02:07:30;;;;;;;6.17;3.10;;;;;;;;;;5050499;28;20033;-70
2022/04/03 02:09:56;;;;;;;4.40;3.00;;;;;;;;;;5052077;28;20473;-69
2022/04/03 02:12:22;;;;;;;6.37;3.50;;;;;;;;;;5049655;28;20408;-71
2022/04/03 02:14:49;;;;;;;3.57;2.80;;;;;;;;;;5048886;28;20033;-70
2022/04/03 02:17:15;;;;;;;5.53;2.97;;;;;;;;;;5051601;28;20481;-70
2022/04/03 02:19:41;;;;;;;6.53;3.00;;;;;;;;;;5056498;28;20062;-70
2022/04/03 02:22:08;;;;;;;6.63;3.00;;;;;;;;;;5069756;28;20037;-70
2022/04/03 02:24:34;;;;;;;5.43;3.10;;;;;;;;;;5065425;28;20045;-70
2022/04/03 02:27:00;;;;;;;5.70;3.30;;;;;;;;;;5072263;28;20078;-71
2022/04/03 02:29:26;;;;;;;7.27;3.43;;;;;;;;;;5074091;28;20037;-70
2022/04/03 02:31:51;;;;;;;5.83;3.50;;;;;;;;;;5074459;28;20036;-70
2022/04/03 02:34:18;;;;;;;5.00;3.20;;;;;;;;;;5072184;28;20118;-70
2022/04/03 02:36:44;;;;;;;5.40;2.97;;;;;;;;;;5073691;28;20084;-69
2022/04/03 02:39:12;;;;;;;7.10;3.03;;;;;;;;;;5066363;28;20028;-70
2022/04/03 02:41:38;;;;;;;5.07;3.10;;;;;;;;;;5061022;28;20111;-70
2022/04/03 02:44:04;;;;;;;5.53;3.20;;;;;;;;;;5056661;28;20422;-68
2022/04/03 02:46:31;;;;;;;5.90;3.23;;;;;;;;;;5059267;28;20170;-70
2022/04/03 02:48:57;;;;;;;6.13;3.43;;;;;;;;;;5052925;28;20033;-69
2022/04/03 02:51:23;;;;;;;4.60;2.90;;;;;;;;;;5054590;28;20507;-69
2022/04/03 02:53:49;;;;;;;5.87;2.90;;;;;;;;;;5053943;28;20119;-70
2022/04/03 02:56:15;;;;;;;5.00;3.10;;;;;;;;;;5053871;28;20151;-70
2022/04/03 02:58:41;;;;;;;4.87;3.10;;;;;;;;;;5053126;28;20057;-71
2022/04/03 03:01:07;;;;;;;7.20;3.27;;;;;;;;;;5052753;28;20056;-69
2022/04/03 03:03:33;;;;;;;6.53;3.50;;;;;;;;;;5052650;28;20032;-70
2022/04/03 03:05:59;;;;;;;7.00;3.50;;;;;;;;;;5052815;28;20120;-70
2022/04/03 03:08:25;;;;;;;7.70;3.40;;;;;;;;;;5052495;28;20068;-70
2022/04/03 03:10:51;;;;;;;7.37;3.27;;;;;;;;;;5054060;28;20374;-70
2022/04/03 03:13:18;;;;;;;7.97;3.70;;;;;;;;;;5051844;28;20119;-69
2022/04/03 03:15:44;;;;;;;8.60;4.13;;;;;;;;;;5053438;28;20036;-70
2022/04/03 03:18:10;;;;;;;9.03;3.70;;;;;;;;;;5051049;28;20393;-69
2022/04/03 03:20:36;;;;;;;4.93;3.33;;;;;;;;;;5052979;28;20120;-70
2022/04/03 03:23:02;;;;;;;7.40;3.40;;;;;;;;;;5050618;28;20442;-70
2022/04/03 03:25:29;;;;;;;5.67;3.23;;;;;;;;;;5052625;28;20029;-70
2022/04/03 03:27:55;;;;;;;5.83;3.00;;;;;;;;;;5053864;28;20028;-70
2022/04/03 03:30:21;;;;;;;6.97;3.53;;;;;;;;;;5053461;28;20033;-70
2022/04/03 03:32:47;;;;;;;6.23;4.20;;;;;;;;;;5050439;28;20033;-69
2022/04/03 03:35:13;;;;;;;6.03;3.03;;;;;;;;;;5052747;28;20059;-70
2022/04/03 03:37:40;;;;;;;4.83;3.17;;;;;;;;;;5053079;28;20025;-70
2022/04/03 03:40:11;;;;;;;4.10;3.07;;;;;;;;;;5050901;28;20449;-70
2022/04/03 03:42:37;;;;;;;8.60;3.53;;;;;;;;;;5051524;28;20035;-70
2022/04/03 03:45:03;;;;;;;6.80;3.27;;;;;;;;;;5049820;28;20493;-71
2022/04/03 03:47:29;;;;;;;7.37;3.87;;;;;;;;;;5051322;28;20037;-71
2022/04/03 03:49:56;;;;;;;7.70;3.60;;;;;;;;;;5051632;28;20107;-70
2022/04/03 03:52:22;;;;;;;7.90;3.60;;;;;;;;;;5057609;28;20032;-69
2022/04/03 03:54:48;;;;;;;6.73;3.60;;;;;;;;;;5053617;28;20029;-69
2022/04/03 03:57:14;;;;;;;6.63;3.77;;;;;;;;;;5057163;28;20098;-70
2022/04/03 03:59:40;;;;;;;7.17;3.83;;;;;;;;;;5056445;28;20045;-70
2022/04/03 04:02:06;;;;;;;6.33;3.67;;;;;;;;;;5056046;28;20071;-69
2022/04/03 04:04:32;;;;;;;8.80;3.97;;;;;;;;;;5047009;28;20158;-69
2022/04/03 04:06:58;;;;;;;6.03;3.50;;;;;;;;;;5052989;28;20466;-70
2022/04/03 04:09:24;;;;;;;7.87;3.67;;;;;;;;;;5052536;28;20029;-69
2022/04/03 04:11:50;;;;;;;8.13;4.23;;;;;;;;;;5051937;28;20095;-71
2022/04/03 04:14:16;;;;;;;5.37;3.47;;;;;;;;;;5050524;28;20072;-69
2022/04/03 04:16:42;;;;;;;7.53;3.60;;;;;;;;;;5052047;28;20374;-70
2022/04/03 04:19:09;;;;;;;7.57;3.83;;;;;;;;;;5049693;28;20096;-70
2022/04/03 04:21:35;;;;;;;8.53;3.80;;;;;;;;;;5053028;28;20128;-70
2022/04/03 04:24:01;;;;;;;6.37;3.30;;;;;;;;;;5051910;28;20483;-70
2022/04/03 04:26:27;;;;;;;7.17;3.90;;;;;;;;;;5053090;28;20028;-70
2022/04/03 04:28:53;;;;;;;7.33;3.63;;;;;;;;;;5053089;28;20209;-69
2022/04/03 04:31:19;;;;;;;7.23;3.50;;;;;;;;;;5051115;28;20424;-70
2022/04/03 04:33:45;;;;;;;4.83;3.27;;;;;;;;;;5051286;28;20040;-70
2022/04/03 04:36:11;;;;;;;6.27;3.80;;;;;;;;;;5050051;28;20078;-68
2022/04/03 04:38:37;;;;;;;7.17;3.50;;;;;;;;;;5050610;28;20461;-70
2022/04/03 04:41:04;;;;;;;5.60;3.37;;;;;;;;;;5052136;28;20450;-71
2022/04/03 04:43:30;;;;;;;7.13;4.13;;;;;;;;;;5050516;28;20025;-70
2022/04/03 04:45:56;;;;;;;6.90;3.93;;;;;;;;;;5051045;28;20419;-69
2022/04/03 04:48:22;;;;;;;8.87;4.57;;;;;;;;;;5052743;28;20025;-70
2022/04/03 04:50:49;;;;;;;8.47;4.67;;;;;;;;;;5052382;28;20118;-69
2022/04/03 04:53:15;;;;;;;7.90;4.80;;;;;;;;;;5047924;28;20037;-70
2022/04/03 04:55:41;;;;;;;10.20;5.40;;;;;;;;;;5052826;28;20028;-68
2022/04/03 04:58:07;;;;;;;7.50;4.87;;;;;;;;;;5050915;28;20017;-69
2022/04/03 05:00:33;;;;;;;7.03;4.87;;;;;;;;;;5052458;28;20029;-69
2022/04/03 05:02:59;;;;;;;8.20;5.00;;;;;;;;;;5050045;28;20068;-69
2022/04/03 05:05:27;;;;;;;9.47;5.37;;;;;;;;;;5049865;28;20389;-76
2022/04/03 05:07:57;;;;;;;9.10;5.40;;;;;;;;;;5046359;28;20044;-71
2022/04/03 05:10:24;;;;;;;8.47;5.00;;;;;;;;;;5046174;28;20028;-72
2022/04/03 05:12:50;;;;;;;8.37;4.40;;;;;;;;;;5051054;28;20025;-72
2022/04/03 05:15:18;;;;;;;6.53;4.20;;;;;;;;;;5050494;28;20484;-71
2022/04/03 05:17:45;;;;;;;9.17;4.20;;;;;;;;;;5047592;28;20425;-72
2022/04/03 05:20:12;;;;;;;8.33;4.67;;;;;;;;;;5049837;28;20837;-72
2022/04/03 05:22:38;;;;;;;7.60;4.23;;;;;;;;;;5049673;28;20029;-72
2022/04/03 05:25:05;;;;;;;8.67;3.83;;;;;;;;;;5062094;28;20186;-72
2022/04/03 05:27:31;;;;;;;5.87;3.50;;;;;;;;;;5053506;28;20082;-72
2022/04/03 05:29:57;;;;;;;6.43;3.90;;;;;;;;;;5048088;28;20037;-71
2022/04/03 05:32:31;;;;;;;8.03;4.03;;;;;;;;;;5053943;28;20036;-71
2022/04/03 05:34:58;;;;;;;7.28;4.10;;;;;;;;;;5050429;28;20031;-74
2022/04/03 05:37:24;;;;;;;8.87;4.07;;;;;;;;;;5049868;28;20143;-74
2022/04/03 05:39:51;;;;;;;4.83;3.10;;;;;;;;;;5046849;28;20101;-78
2022/04/03 05:42:17;;;;;;;8.00;3.63;;;;;;;;;;5050039;28;20416;-73
2022/04/03 05:44:43;;;;;;;6.80;3.80;;;;;;;;;;5047789;28;20116;-71
2022/04/03 05:47:09;;;;;;;6.20;3.33;;;;;;;;;;5043725;28;20039;-72
2022/04/03 05:49:35;;;;;;;6.60;4.17;;;;;;;;;;5049049;28;20455;-72
2022/04/03 05:52:02;;;;;;;7.27;3.93;;;;;;;;;;5044147;28;20110;-69
2022/04/03 05:54:28;;;;;;;8.00;4.20;;;;;;;;;;5042672;28;20086;-70
2022/04/03 05:56:55;;;;;;;6.10;3.30;;;;;;;;;;5044791;28;20025;-70
2022/04/03 05:59:21;;;;;;;7.07;3.83;;;;;;;;;;5049070;28;20021;-71
2022/04/03 06:01:47;;;;;;;6.40;4.10;;;;;;;;;;5046508;28;20108;-67
2022/04/03 06:04:14;;;;;;;8.60;4.33;;;;;;;;;;5047289;28;20033;-73
2022/04/03 06:06:40;;;;;;;9.20;4.17;;;;;;;;;;5075335;22;20045;-70
2022/04/03 06:09:06;;;;;;;10.50;4.50;;;;;;;;;;5083223;28;20376;-71
2022/04/03 06:11:32;;;;;;;7.30;3.90;;;;;;;;;;5068955;28;20071;-72
2022/04/03 06:13:58;;;;;;;7.10;3.53;;;;;;;;;;5085609;28;20062;-72
2022/04/03 06:16:24;;;;;;;8.17;4.07;;;;;;;;;;5070112;28;20024;-73
2022/04/03 06:18:53;;;;;;;6.87;3.90;;;;;;;;;;5064085;28;20021;-72
2022/04/03 06:21:19;;;;;;;7.63;4.30;;;;;;;;;;5068442;28;20327;-71
2022/04/03 06:23:45;;;;;;;7.83;3.93;;;;;;;;;;5062587;28;20163;-71
2022/04/03 06:26:11;;;;;;;5.90;3.80;;;;;;;;;;5062677;28;20108;-72
2022/04/03 06:28:37;;;;;;;7.67;3.90;;;;;;;;;;5062712;28;20155;-68
2022/04/03 06:31:03;;;;;;;8.73;4.30;;;;;;;;;;5079501;28;20032;-71
2022/04/03 06:33:29;;;;;;;5.67;3.80;;;;;;;;;;5083335;28;20047;-72
2022/04/03 06:35:55;;;;;;;9.10;3.93;;;;;;;;;;5061931;28;20033;-71
2022/04/03 06:38:21;;;;;;;6.17;3.83;;;;;;;;;;5067418;28;20111;-70
2022/04/03 06:40:54;;;;;;;5.67;3.40;;;;;;;;;;5071560;28;20083;-71
2022/04/03 06:43:21;;;;;;;5.80;3.97;;;;;;;;;;5067320;28;20070;-71
2022/04/03 06:45:48;;;;;;;6.03;3.80;;;;;;;;;;5072501;28;20034;-72
2022/04/03 06:48:14;;;;;;;5.67;3.93;;;;;;;;;;5068005;28;20073;-71
2022/04/03 06:50:40;;;;;;;6.87;4.33;;;;;;;;;;5066986;28;20031;-71
2022/04/03 06:53:06;;;;;;;8.57;4.37;;;;;;;;;;5068932;28;20040;-72
2022/04/03 06:55:32;;;;;;;9.70;4.00;;;;;;;;;;5067880;28;20029;-70
2022/04/03 06:57:58;;;;;;;8.35;3.95;;;;;;;;;;5068260;28;20033;-71
2022/04/03 07:00:24;;;;;;;13.43;7.28;;;;;;;;;;5069876;28;20511;-72
2022/04/03 07:02:51;;;;;;;4.20;3.30;;;;;;;;;;5073457;28;20373;-70
2022/04/03 07:05:17;;;;;;;7.32;3.85;;;;;;;;;;5074029;28;20033;-71
2022/04/03 07:07:43;;;;;;;4.63;3.40;;;;;;;;;;5074383;28;20594;-72
2022/04/03 07:10:10;;;;;;;4.65;3.72;;;;;;;;;;5071780;28;20048;-72
2022/04/03 07:12:36;;;;;;;4.47;3.47;;;;;;;;;;5071505;28;20032;-71
2022/04/03 07:15:03;;;;;;;5.15;3.63;;;;;;;;;;5073734;28;20093;-71
2022/04/03 07:17:29;;;;;;;7.65;4.07;;;;;;;;;;5079846;28;20205;-71
2022/04/03 07:19:55;;;;;;;4.93;3.28;;;;;;;;;;5076003;28;20024;-72
2022/04/03 07:22:21;;;;;;;4.53;3.35;;;;;;;;;;5074800;28;20070;-72
2022/04/03 07:24:47;;;;;;;6.10;3.83;;;;;;;;;;5070016;28;20032;-71
2022/04/03 07:27:13;;;;;;;5.10;3.33;;;;;;;;;;5070166;28;20028;-71
2022/04/03 07:29:39;;;;;;;7.10;3.42;;;;;;;;;;5073826;28;20024;-72
2022/04/03 07:32:06;;;;;;;5.50;3.35;;;;;;;;;;5067473;28;20036;-71
2022/04/03 07:34:31;;;;;;;5.40;3.50;;;;;;;;;;5068640;28;20024;-70
2022/04/03 07:36:58;;;;;;;5.25;3.65;;;;;;;;;;5080521;28;20042;-70
2022/04/03 07:39:26;;;;;;;5.55;3.65;;;;;;;;;;5073303;28;20047;-72
2022/04/03 07:41:52;;;;;;;5.82;3.85;;;;;;;;;;5066666;28;20507;-71
2022/04/03 07:44:18;;;;;;;5.00;3.50;;;;;;;;;;5080659;28;20024;-71
2022/04/03 07:46:44;;;;;;;5.70;3.42;;;;;;;;;;5078382;28;20032;-73
2022/04/03 07:49:10;;;;;;;4.40;3.10;;;;;;;;;;5072352;28;20036;-71
2022/04/03 07:51:36;;;;;;;4.88;2.90;;;;;;;;;;5073419;28;20393;-71
2022/04/03 07:54:03;;;;;;;4.13;3.00;;;;;;;;;;5073030;28;20541;-70
2022/04/03 07:56:30;;;;;;;4.85;3.25;;;;;;;;;;5072356;28;20082;-70
2022/04/03 07:58:56;;;;;;;6.10;3.50;;;;;;;;;;5073901;28;20035;-71
2022/04/03 08:01:22;;;;;;;3.60;3.10;;;;;;;;;;5072682;28;20480;-71
2022/04/03 08:03:48;;;;;;;6.45;3.58;;;;;;;;;;5072431;28;20043;-71
2022/04/03 08:06:14;;;;;;;7.20;3.88;;;;;;;;;;5072036;28;20397;-71
2022/04/03 08:08:41;;;;;;;4.18;2.95;;;;;;;;;;5074186;28;20086;-70
2022/04/03 08:11:08;;;;;;;4.60;2.88;;;;;;;;;;5071351;28;20021;-70
2022/04/03 08:13:34;;;;;;;5.25;2.95;;;;;;;;;;5072386;28;20059;-70
2022/04/03 08:16:01;;;;;;;3.50;2.53;;;;;;;;;;5067090;28;20028;-71
2022/04/03 08:18:27;;;;;;;4.03;2.63;;;;;;;;;;5067195;28;20056;-71
2022/04/03 08:20:53;;;;;;;4.53;2.60;;;;;;;;;;5070576;28;20036;-71
2022/04/03 08:23:19;;;;;;;3.95;2.65;;;;;;;;;;5071161;28;20489;-72
2022/04/03 08:25:45;;;;;;;5.65;2.35;;;;;;;;;;5071908;28;20028;-74
2022/04/03 08:28:11;;;;;;;5.35;3.40;;;;;;;;;;5068976;28;20044;-72
2022/04/03 08:30:38;;;;;;;4.50;2.38;;;;;;;;;;5068247;28;20207;-73
2022/04/03 08:33:05;;;;;;;4.75;2.60;;;;;;;;;;5071307;28;20064;-73
2022/04/03 08:35:32;;;;;;;5.15;2.10;;;;;;;;;;5072339;28;20056;-70
2022/04/03 08:37:59;;;;;;;4.20;2.50;;;;;;;;;;5072425;28;20073;-72
2022/04/03 08:40:25;;;;;;;4.47;2.78;;;;;;;;;;5070936;28;20033;-72
2022/04/03 08:42:52;;;;;;;3.20;2.58;;;;;;;;;;5064392;28;20032;-71
2022/04/03 08:45:18;;;;;;;5.03;2.40;;;;;;;;;;5068483;28;20122;-72
2022/04/03 08:47:48;;;;;;;3.72;2.55;;;;;;;;;;5070676;28;20060;-72
2022/04/03 08:50:15;;;;;;;4.32;2.17;;;;;;;;;;5072481;28;20031;-72
2022/04/03 08:52:45;;;;;;;5.95;2.40;;;;;;;;;;5071256;28;20035;-71
2022/04/03 08:55:11;;;;;;;6.05;2.60;;;;;;;;;;5069948;28;20082;-71
2022/04/03 08:57:37;;;;;;;3.15;2.38;;;;;;;;;;5069611;28;20039;-72
2022/04/03 09:00:04;;;;;;;5.15;2.30;;;;;;;;;;5068536;28;20726;-71
2022/04/03 09:02:30;;;;;;;4.22;2.50;;;;;;;;;;5069134;28;20457;-72
2022/04/03 09:04:56;;;;;;;3.30;2.60;;;;;;;;;;5087423;28;20098;-74
2022/04/03 09:07:22;;;;;;;4.20;2.30;;;;;;;;;;5070878;28;20043;-72
2022/04/03 09:09:59;;;;;;;3.67;2.40;;;;;;;;;;5072085;28;20064;-71
2022/04/03 09:12:26;;;;;;;3.33;2.40;;;;;;;;;;5068254;28;20055;-72
2022/04/03 09:14:56;;;;;;;3.35;2.30;;;;;;;;;;5071588;28;20055;-72
2022/04/03 09:17:42;;;;;;;4.32;2.70;;;;;;;;;;5070442;28;20404;-71
2022/04/03 09:20:08;;;;;;;3.22;2.20;;;;;;;;;;5069040;28;20070;-71
2022/04/03 09:22:36;;;;;;;3.65;2.60;;;;;;;;;;5067542;28;20025;-73
2022/04/03 09:25:05;;;;;;;3.97;2.47;;;;;;;;;;5070091;28;20029;-72
2022/04/03 09:27:35;;;;;;;4.03;2.20;;;;;;;;;;5067524;28;20029;-72
2022/04/03 09:30:07;;;;;;;3.42;2.28;;;;;;;;;;5066100;28;20045;-74
2022/04/03 09:32:33;;;;;;;3.75;2.45;;;;;;;;;;5062807;28;20074;-72
2022/04/03 09:34:59;;;;;;;4.00;2.70;;;;;;;;;;5066255;28;20052;-72
2022/04/03 09:37:26;;;;;;;2.65;2.10;;;;;;;;;;5066108;28;20020;-72
2022/04/03 09:39:52;;;;;;;3.90;2.40;;;;;;;;;;5069217;28;20024;-71
2022/04/03 09:42:18;;;;;;;2.80;2.30;;;;;;;;;;5070008;28;20025;-72
2022/04/03 09:44:46;;;;;;;2.70;2.42;;;;;;;;;;5070435;28;20515;-73
2022/04/03 09:47:14;;;;;;;4.72;2.58;;;;;;;;;;5071844;28;20032;-72
2022/04/03 09:49:42;;;;;;;4.15;2.60;;;;;;;;;;5071075;28;20067;-74
2022/04/03 09:52:09;;;;;;;3.38;2.20;;;;;;;;;;5068579;28;20059;-73
2022/04/03 09:54:38;;;;;;;3.55;2.50;;;;;;;;;;5069267;28;20025;-74
2022/04/03 09:57:33;;;;;;;3.17;2.42;;;;;;;;;;5065041;28;20140;-73
2022/04/03 09:59:59;;;;;;;5.50;2.40;;;;;;;;;;5057263;28;20048;-74
2022/04/03 10:02:25;;;;;;;5.35;2.70;;;;;;;;;;5070780;28;20029;-74
2022/04/03 10:04:55;;;;;;;4.40;2.65;;;;;;;;;;5070033;28;20457;-73
2022/04/03 10:07:22;;;;;;;5.10;2.92;;;;;;;;;;5067992;28;20051;-73
2022/04/03 10:09:49;;;;;;;7.07;2.65;;;;;;;;;;5070323;28;20540;-72
2022/04/03 10:12:16;;;;;;;5.97;3.03;;;;;;;;;;5069951;28;20028;-74
2022/04/03 10:14:43;;;;;;;3.10;2.30;;;;;;;;;;5071320;28;20028;-71
2022/04/03 10:17:09;;;;;;;3.83;2.53;;;;;;;;;;5068479;28;20422;-72
2022/04/03 10:19:35;;;;;;;3.78;2.58;;;;;;;;;;5059098;28;20027;-72
2022/04/03 10:22:02;;;;;;;4.22;2.72;;;;;;;;;;5071574;28;20098;-72
2022/04/03 10:24:29;;;;;;;4.25;3.00;;;;;;;;;;5068922;28;20206;-72
2022/04/03 10:27:00;;;;;;;4.22;2.33;;;;;;;;;;5068917;28;20037;-72
2022/04/03 10:29:30;;;;;;;3.70;2.83;;;;;;;;;;5070254;28;20115;-72
2022/04/03 10:32:03;;;;;;;4.07;2.85;;;;;;;;;;5068519;28;20424;-72
2022/04/03 10:34:29;;;;;;;5.03;2.53;;;;;;;;;;5061396;28;20024;-73
2022/04/03 10:36:55;;;;;;;4.32;3.00;;;;;;;;;;5069046;28;20481;-72
2022/04/03 10:39:28;;;;;;;3.38;2.80;;;;;;;;;;5068917;28;20477;-73
2022/04/03 10:42:15;;;;;;;5.43;2.90;;;;;;;;;;5072763;28;20508;-72
2022/04/03 10:44:41;;;;;;;3.90;2.75;;;;;;;;;;5071464;28;20039;-72
2022/04/03 10:47:07;;;;;;;3.72;2.63;;;;;;;;;;5075055;28;20063;-72
2022/04/03 10:49:43;;;;;;;3.42;2.70;;;;;;;;;;5075641;28;20047;-72
2022/04/03 10:52:33;;;;;;;3.95;2.25;;;;;;;;;;5075092;28;20111;-72
2022/04/03 10:55:02;;;;;;;4.53;2.60;;;;;;;;;;5064890;28;20040;-72
2022/04/03 10:57:45;;;;;;;5.10;2.72;;;;;;;;;;5068170;28;20063;-71
2022/04/03 11:00:14;;;;;;;3.63;2.40;;;;;;;;;;5074056;28;20083;-72
2022/04/03 11:02:40;;;;;;;3.22;2.38;;;;;;;;;;5071987;28;20024;-71
2022/04/03 11:05:24;;;;;;;3.25;2.60;;;;;;;;;;5072850;28;20023;-71
2022/04/03 11:07:54;;;;;;;3.72;2.80;;;;;;;;;;5072248;28;20029;-72
2022/04/03 11:10:40;;;;;;;4.50;3.10;;;;;;;;;;5073235;28;20079;-72
2022/04/03 11:13:09;;;;;;;4.78;2.92;;;;;;;;;;5074592;28;20492;-73
2022/04/03 11:15:44;;;;;;;2.92;2.40;;;;;;;;;;5083078;28;20089;-72
2022/04/03 11:18:25;;;;;;;5.10;2.85;;;;;;;;;;5079971;28;20028;-73
2022/04/03 11:21:04;;;;;;;2.95;2.58;;;;;;;;;;5072963;28;20025;-73
2022/04/03 11:23:30;;;;;;;3.92;2.70;;;;;;;;;;5074893;28;20043;-72
2022/04/03 11:25:57;;;;;;;3.80;2.70;;;;;;;;;;5073188;28;20035;-72
2022/04/03 11:28:23;;;;;;;5.28;2.67;;;;;;;;;;5072676;28;20025;-71
2022/04/03 11:30:50;;;;;;;4.30;2.75;;;;;;;;;;5074998;28;20084;-72
2022/04/03 11:33:16;;;;;;;3.55;2.90;;;;;;;;;;5077066;28;20033;-72
2022/04/03 11:35:42;;;;;;;5.10;2.80;;;;;;;;;;5077474;28;20034;-72
2022/04/03 11:38:09;;;;;;;3.67;2.75;;;;;;;;;;5074958;28;20025;-73
2022/04/03 11:40:35;;;;;;;4.82;2.80;;;;;;;;;;5068615;28;20024;-73
2022/04/03 11:43:09;;;;;;;5.18;3.50;;;;;;;;;;5070853;28;20028;-73
2022/04/03 11:45:35;;;;;;;3.78;2.92;;;;;;;;;;5052345;28;20035;-73
2022/04/03 11:48:17;;;;;;;4.25;2.80;;;;;;;;;;5056697;28;20103;-73
2022/04/03 11:50:43;;;;;;;4.40;2.90;;;;;;;;;;5066429;28;20031;-73
2022/04/03 11:53:10;;;;;;;4.53;2.80;;;;;;;;;;5071399;28;20036;-72
2022/04/03 11:55:36;;;;;;;5.20;2.95;;;;;;;;;;5075145;28;20020;-73
2022/04/03 11:58:04;;;;;;;4.63;3.10;;;;;;;;;;5073741;28;20115;-73
2022/04/03 12:00:31;;;;;;;4.55;3.05;;;;;;;;;;5064929;28;20036;-72
2022/04/03 12:03:00;;;;;;;4.40;3.00;;;;;;;;;;5066621;28;20033;-72
2022/04/03 12:05:27;;;;;;;4.00;2.78;;;;;;;;;;5073828;28;20033;-74
2022/04/03 12:07:52;;;;;;;7.50;2.70;;;;;;;;;;5072318;22;20080;-71
2022/04/03 12:10:28;;;;;;;3.88;2.80;;;;;;;;;;5040916;28;20087;-70
2022/04/03 12:12:55;;;;;;;5.53;3.10;;;;;;;;;;5030633;28;20048;-72
2022/04/03 12:15:22;;;;;;;5.32;3.08;;;;;;;;;;5030868;28;20083;-68
2022/04/03 12:17:55;;;;;;;4.65;2.63;;;;;;;;;;5038286;28;20030;-72
2022/04/03 12:20:21;;;;;;;4.72;2.90;;;;;;;;;;5027604;28;20048;-71
2022/04/03 12:22:51;;;;;;;6.55;3.10;;;;;;;;;;5032493;28;20036;-71
2022/04/03 12:25:17;;;;;;;3.40;2.42;;;;;;;;;;5034196;28;20041;-71
2022/04/03 12:27:43;;;;;;;5.05;2.58;;;;;;;;;;5030493;28;20101;-70
2022/04/03 12:30:10;;;;;;;3.47;2.47;;;;;;;;;;5031437;28;20021;-69
2022/04/03 12:32:37;;;;;;;3.92;2.55;;;;;;;;;;5032401;28;20425;-70
2022/04/03 12:35:08;;;;;;;3.75;2.65;;;;;;;;;;5033031;28;20429;-70
2022/04/03 12:37:35;;;;;;;3.63;2.38;;;;;;;;;;5032425;28;20034;-71
2022/04/03 12:40:03;;;;;;;2.58;2.25;;;;;;;;;;5029036;28;20033;-71
2022/04/03 12:42:39;;;;;;;3.70;2.63;;;;;;;;;;5030871;28;20464;-69
2022/04/03 12:45:15;;;;;;;4.63;2.70;;;;;;;;;;5034642;28;20179;-73
2022/04/03 12:47:50;;;;;;;3.53;2.22;;;;;;;;;;5033620;28;20094;-74
2022/04/03 12:50:24;;;;;;;3.83;2.00;;;;;;;;;;5036873;28;20400;-76
2022/04/03 12:52:51;;;;;;;6.93;4.47;;;;;;;;;;5034503;28;20030;-72
2022/04/03 12:55:32;;;;;;;7.63;4.82;;;;;;;;;;5045671;28;20441;-75
2022/04/03 13:00:56;;;;;;;4.18;3.40;;;;;;;;;;5032307;28;20070;-73
2022/04/03 13:03:29;;;;;;;3.28;2.33;;;;;;;;;;5037574;28;20090;-71
2022/04/03 13:06:01;;;;;;;3.33;2.22;;;;;;;;;;5033872;28;20034;-73
2022/04/03 13:08:27;;;;;;;4.78;2.58;;;;;;;;;;5033263;28;20057;-73
2022/04/03 13:10:58;;;;;;;4.95;2.40;;;;;;;;;;5049618;28;20087;-73
2022/04/03 13:13:25;;;;;;;4.45;2.70;;;;;;;;;;5035400;28;20116;-72
2022/04/03 13:15:52;;;;;;;3.55;2.63;;;;;;;;;;5076116;28;20025;-74
2022/04/03 13:18:18;;;;;;;7.38;2.67;;;;;;;;;;5037503;28;20080;-73
2022/04/03 13:20:51;;;;;;;3.95;2.13;;;;;;;;;;5036919;28;20028;-75
2022/04/03 13:23:18;;;;;;;3.38;2.35;;;;;;;;;;5032686;28;20041;-74
2022/04/03 13:25:45;;;;;;;2.95;2.00;;;;;;;;;;5033904;28;20029;-75
2022/04/03 13:28:11;;;;;;;3.38;2.20;;;;;;;;;;5030694;28;20486;-75
2022/04/03 13:30:37;;;;;;;5.85;2.10;;;;;;;;;;5032540;28;20037;-74
2022/04/03 13:33:03;;;;;;;3.28;1.98;;;;;;;;;;5032672;28;20121;-73
2022/04/03 13:35:29;;;;;;;3.00;2.20;;;;;;;;;;5040371;28;20493;-75
2022/04/03 13:37:55;;;;;;;3.75;2.20;;;;;;;;;;5030487;28;20053;-74
2022/04/03 13:40:22;;;;;;;6.32;2.10;;;;;;;;;;5032409;28;20030;-73
2022/04/03 13:42:48;;;;;;;3.80;2.35;;;;;;;;;;5037156;28;20480;-76
2022/04/03 13:45:14;;;;;;;4.85;2.20;;;;;;;;;;5053888;28;20112;-74
2022/04/03 13:47:40;;;;;;;3.83;2.53;;;;;;;;;;5034784;28;20041;-74
2022/04/03 13:50:06;;;;;;;4.45;2.28;;;;;;;;;;5034643;28;20060;-74
2022/04/03 13:52:32;;;;;;;3.92;2.00;;;;;;;;;;5036573;28;20109;-73
2022/04/03 13:54:58;;;;;;;2.97;2.00;;;;;;;;;;5033023;28;20176;-75
2022/04/03 13:57:24;;;;;;;3.05;2.00;;;;;;;;;;5048839;28;20026;-73
2022/04/03 13:59:51;;;;;;;4.88;1.92;;;;;;;;;;5034211;28;20033;-76
2022/04/03 14:02:17;;;;;;;5.63;1.90;;;;;;;;;;5050456;28;20033;-76
2022/04/03 14:04:43;;;;;;;3.40;2.08;;;;;;;;;;5046517;28;20429;-74
2022/04/03 14:07:09;;;;;;;7.15;1.90;;;;;;;;;;5039866;28;20095;-73
2022/04/03 14:09:35;;;;;;;3.17;2.25;;;;;;;;;;5033582;28;20045;-74
2022/04/03 14:12:01;;;;;;;4.70;2.10;;;;;;;;;;5039805;28;20033;-73
2022/04/03 14:14:27;;;;;;;3.05;1.75;;;;;;;;;;5032084;28;20056;-74
2022/04/03 14:16:54;;;;;;;3.78;2.15;;;;;;;;;;5035330;28;20401;-73
2022/04/03 14:19:20;;;;;;;5.40;2.10;;;;;;;;;;5040234;28;20085;-74
2022/04/03 14:21:46;;;;;;;3.00;2.15;;;;;;;;;;5053909;28;20481;-74
2022/04/03 14:24:12;;;;;;;5.65;2.22;;;;;;;;;;5047322;28;20057;-74
2022/04/03 14:26:38;;;;;;;4.20;2.40;;;;;;;;;;5039618;28;20060;-75
2022/04/03 14:29:05;;;;;;;3.45;2.15;;;;;;;;;;5042042;28;20064;-75
2022/04/03 14:31:31;;;;;;;2.90;1.90;;;;;;;;;;5043124;28;20080;-75
2022/04/03 14:33:57;;;;;;;5.03;2.30;;;;;;;;;;5039860;28;20041;-75
2022/04/03 14:36:23;;;;;;;3.30;1.90;;;;;;;;;;5046387;28;20036;-74
2022/04/03 14:38:51;;;;;;;3.42;2.22;;;;;;;;;;5062305;28;20025;-74
2022/04/03 14:41:17;;;;;;;7.05;2.60;;;;;;;;;;5054834;28;20044;-75
2022/04/03 14:43:44;;;;;;;2.80;1.80;;;;;;;;;;5041262;28;20033;-74
2022/04/03 14:46:10;;;;;;;4.72;2.20;;;;;;;;;;5041898;28;20029;-76